Time;durP1;ratioP1;P1;durP2;ratioP2;P2;SDS_P1;SDS_P2;PMS_P1;PMS_P2;Temp;Humidity;BMP_temperature;BMP_pressure;BME280_temperature;BME280_humidity;BME280_pressure;Samples;Min_cycle;Max_cycle;Signal;HPM_P1;HPM_P2
2023/08/22 00:08:06;;;;;;;2.30;1.45;;;28.80;99.90;;;;;;20939536;28;20708;-66
2023/08/22 00:18:08;;;;;;;1.65;1.42;;;28.60;99.90;;;;;;20985191;28;20228;-66
2023/08/22 00:28:10;;;;;;;2.97;1.20;;;;;;;;;;20942652;28;20233;-67
2023/08/22 00:38:12;;;;;;;2.45;1.50;;;;;;;;;;20951148;28;20267;-66
2023/08/22 00:48:14;;;;;;;2.35;1.40;;;;;;;;;;20963882;28;20227;-66
2023/08/22 00:58:16;;;;;;;1.63;1.20;;;;;;;;;;20966085;28;20217;-66
2023/08/22 01:08:24;;;;;;;2.00;1.60;;;28.10;99.90;;;;;;20949731;28;20228;-66
2023/08/22 01:18:27;;;;;;;2.30;1.30;;;;;;;;;;20977141;22;20310;-68
2023/08/22 01:28:40;;;;;;;3.00;1.67;;;28.00;99.90;;;;;;20932593;28;20785;-68
2023/08/22 01:38:43;;;;;;;4.78;1.50;;;;;;;;;;20933549;28;20219;-68
2023/08/22 01:48:45;;;;;;;2.72;1.60;;;;;;;;;;20952393;28;20292;-68
2023/08/22 01:58:47;;;;;;;2.03;1.50;;;;;;;;;;20919666;28;20270;-68
2023/08/22 02:08:48;;;;;;;4.28;2.10;;;;;;;;;;20953145;28;20237;-68
2023/08/22 02:18:50;;;;;;;2.70;1.95;;;;;;;;;;20903306;28;20712;-68
2023/08/22 02:28:53;;;;;;;3.45;1.60;;;;;;;;;;20862761;28;20233;-68
2023/08/22 02:38:55;;;;;;;2.47;1.63;;;;;;;;;;20877588;28;20785;-68
2023/08/22 02:48:57;;;;;;;2.38;1.50;;;;;;;;;;20918054;28;20246;-68
2023/08/22 02:59:00;;;;;;;2.83;1.60;;;;;;;;;;20934079;28;20273;-68
2023/08/22 03:09:03;;;;;;;4.88;1.73;;;;;;;;;;20974034;28;20610;-68
2023/08/22 03:19:04;;;;;;;3.80;1.60;;;;;;;;;;20937297;28;20227;-68
2023/08/22 03:29:07;;;;;;;1.80;1.52;;;;;;;;;;20939504;28;20235;-68
2023/08/22 03:39:09;;;;;;;4.50;1.90;;;;;;;;;;20924229;28;20707;-68
2023/08/22 03:49:11;;;;;;;3.45;1.92;;;;;;;;;;20941375;28;20224;-69
2023/08/22 03:59:14;;;;;;;3.35;2.35;;;;;;;;;;20937960;28;20242;-68
2023/08/22 04:09:16;;;;;;;5.75;2.00;;;;;;;;;;20919886;28;20331;-69
2023/08/22 04:19:19;;;;;;;4.25;1.83;;;;;;;;;;20968445;28;20236;-69
2023/08/22 04:29:22;;;;;;;3.78;1.60;;;;;;;;;;20939544;28;20246;-69
2023/08/22 04:39:25;;;;;;;3.50;1.77;;;;;;;;;;20938459;28;20295;-69
2023/08/22 04:49:37;;;;;;;2.80;1.90;;;;;;;;;;20904392;28;20220;-69
2023/08/22 04:59:39;;;;;;;2.60;1.50;;;;;;;;;;20917381;28;20707;-69
2023/08/22 05:09:41;;;;;;;6.10;1.90;;;;;;;;;;20863842;28;20278;-69
2023/08/22 05:19:44;;;;;;;2.50;1.40;;;;;;;;;;20913457;28;20305;-70
2023/08/22 05:29:47;;;;;;;1.67;1.40;;;;;;;;;;20888382;28;20265;-68
2023/08/22 05:39:49;;;;;;;4.40;1.50;;;;;;;;;;20888954;28;20274;-69
2023/08/22 05:49:51;;;;;;;1.63;1.25;;;;;;;;;;20954040;28;20224;-70
2023/08/22 05:59:52;;;;;;;2.28;1.40;;;;;;;;;;20963095;28;20593;-69
2023/08/22 06:09:54;;;;;;;2.83;1.70;;;;;;;;;;20920563;28;20212;-69
2023/08/22 06:19:56;;;;;;;3.15;2.08;;;;;;;;;;20924597;28;20282;-74
2023/08/22 06:30:00;;;;;;;3.22;2.13;;;;;;;;;;20880407;28;20217;-74
2023/08/22 06:40:05;;;;;;;4.43;2.58;;;26.90;99.90;;;;;;20895059;28;20226;-74
2023/08/22 06:50:09;;;;;;;3.83;3.22;;;;;;;;;;20930468;28;20220;-73
2023/08/22 07:00:15;;;;;;;4.40;2.78;;;26.90;99.90;;;;;;20925240;28;20223;-74
2023/08/22 07:10:16;;;;;;;3.35;2.60;;;;;;;;;;20926563;28;20279;-75
2023/08/22 07:20:18;;;;;;;3.58;2.47;;;;;;;;;;20939888;28;20635;-75
2023/08/22 07:30:20;;;;;;;4.47;2.80;;;;;;;;;;20908845;28;20278;-74
2023/08/22 07:40:22;;;;;;;5.13;2.22;;;;;;;;;;20853980;28;20603;-74
2023/08/22 07:50:24;;;;;;;2.33;1.73;;;;;;;;;;20945753;22;20372;-73
2023/08/22 08:00:26;;;;;;;3.03;1.52;;;;;;;;;;21148134;27;20217;-73
2023/08/22 08:10:27;;;;;;;1.92;1.20;;;;;;;;;;21128883;28;20218;-75
2023/08/22 08:20:29;;;;;;;2.33;1.15;;;;;;;;;;21049365;28;20284;-73
2023/08/22 08:30:31;;;;;;;3.45;0.73;;;;;;;;;;21144193;28;20288;-73
2023/08/22 08:40:36;;;;;;;2.05;0.90;;;;;;;;;;21103904;28;20282;-74
2023/08/22 08:50:38;;;;;;;1.58;1.10;;;;;;;;;;21102851;28;20292;-74
2023/08/22 09:00:40;;;;;;;1.33;0.85;;;;;;;;;;21150427;28;20214;-74
2023/08/22 09:10:42;;;;;;;2.20;0.80;;;;;;;;;;21131354;28;20269;-74
2023/08/22 09:20:45;;;;;;;0.77;0.68;;;;;;;;;;21132455;28;20712;-74
2023/08/22 09:30:48;;;;;;;0.73;0.60;;;;;;;;;;21149378;28;20253;-73
2023/08/22 09:40:52;;;;;;;0.88;0.60;;;30.50;99.90;;;;;;21143255;28;20533;-74
2023/08/22 09:50:59;;;;;;;2.35;0.68;;;;;;;;;;21134123;28;20352;-73
2023/08/22 10:01:02;;;;;;;1.95;0.60;;;;;;;;;;21150070;28;20332;-74
2023/08/22 10:11:05;;;;;;;1.50;0.77;;;;;;;;;;21123699;28;20216;-74
2023/08/22 10:21:06;;;;;;;1.33;0.70;;;;;;;;;;21153524;28;20486;-75
2023/08/22 10:31:08;;;;;;;1.10;0.60;;;;;;;;;;21147020;28;20212;-74
2023/08/22 10:41:13;;;;;;;1.67;0.60;;;;;;;;;;21130690;28;20212;-77
2023/08/22 10:51:15;;;;;;;0.73;0.50;;;;;;;;;;21091339;28;20228;-76
2023/08/22 11:01:17;;;;;;;1.02;0.50;;;32.00;99.90;;;;;;21156962;28;20322;-75
2023/08/22 11:11:20;;;;;;;0.95;0.45;;;;;;;;;;21115691;28;20274;-75
2023/08/22 11:21:21;;;;;;;2.45;0.73;;;;;;;;;;21108718;28;20265;-75
2023/08/22 11:31:23;;;;;;;5.38;1.33;;;;;;;;;;21138527;28;20213;-74
2023/08/22 11:41:25;;;;;;;1.25;0.60;;;;;;;;;;21096796;27;20260;-74
2023/08/22 11:51:28;;;;;;;2.03;0.77;;;;;;;;;;21153939;28;20284;-74
2023/08/22 12:01:31;;;;;;;0.45;0.45;;;;;;;;;;21108859;28;20216;-74
2023/08/22 12:11:33;;;;;;;0.80;0.55;;;;;;;;;;21062705;28;20265;-74
2023/08/22 12:21:35;;;;;;;0.82;0.47;;;;;;;;;;21062226;28;20255;-76
2023/08/22 12:31:36;;;;;;;1.27;0.80;;;;;;;;;;21087321;28;20241;-74
2023/08/22 12:41:38;;;;;;;2.90;1.15;;;;;;;;;;21118956;28;20255;-74
2023/08/22 12:51:40;;;;;;;1.85;0.70;;;;;;;;;;21144837;28;20690;-74
2023/08/22 13:01:42;;;;;;;1.25;0.60;;;;;;;;;;21072418;28;20265;-76
2023/08/22 13:11:44;;;;;;;2.45;0.90;;;;;;;;;;21115326;28;20289;-72
2023/08/22 13:21:45;;;;;;;2.13;0.90;;;;;;;;;;21099136;28;20333;-73
2023/08/22 13:31:48;;;;;;;5.03;1.15;;;;;;;;;;21083199;28;20236;-74
2023/08/22 13:41:49;;;;;;;2.47;0.90;;;;;;;;;;21127241;28;20269;-73
2023/08/22 13:51:51;;;;;;;2.13;0.80;;;;;;;;;;21087058;28;20541;-73
2023/08/22 14:01:53;;;;;;;1.52;0.75;;;;;;;;;;21151768;28;20228;-73
2023/08/22 14:11:55;;;;;;;1.27;0.90;;;;;;;;;;21071755;28;20292;-73
2023/08/22 14:21:56;;;;;;;2.78;0.65;;;;;;;;;;21102040;28;20216;-74
2023/08/22 14:31:58;;;;;;;2.17;0.70;;;;;;;;;;21106238;28;20710;-73
2023/08/22 14:41:59;;;;;;;1.85;0.70;;;;;;;;;;21158926;27;20242;-74
2023/08/22 14:52:01;;;;;;;0.98;0.60;;;;;;;;;;21021980;22;20278;-71
2023/08/22 15:02:03;;;;;;;4.75;1.23;;;;;;;;;;20929057;28;20229;-72
2023/08/22 15:12:05;;;;;;;1.40;0.80;;;;;;;;;;20962644;28;20213;-74
2023/08/22 15:22:07;;;;;;;0.73;0.50;;;;;;;;;;20958937;28;20821;-71
2023/08/22 15:32:08;;;;;;;1.20;0.70;;;;;;;;;;20968174;28;20662;-74
2023/08/22 15:42:10;;;;;;;2.63;0.70;;;;;;;;;;20974667;28;20728;-72
2023/08/22 15:52:11;;;;;;;0.90;0.65;;;;;;;;;;20960853;28;20205;-73
2023/08/22 16:02:13;;;;;;;2.38;0.70;;;;;;;;;;20957958;28;20253;-71
2023/08/22 16:12:15;;;;;;;2.40;0.65;;;;;;;;;;20943597;28;20221;-72
2023/08/22 16:22:17;;;;;;;3.33;0.60;;;;;;;;;;20920109;28;20224;-72
2023/08/22 16:32:19;;;;;;;1.25;0.50;;;;;;;;;;20936083;28;20201;-73
2023/08/22 16:42:27;;;;;;;1.00;0.55;;;;;;;;;;20949659;28;20221;-73
2023/08/22 16:52:28;;;;;;;0.38;0.38;;;;;;;;;;20967154;28;20287;-74
2023/08/22 17:02:31;;;;;;;0.60;0.40;;;;;;;;;;20946393;28;20768;-74
2023/08/22 17:12:33;;;;;;;0.88;0.50;;;;;;;;;;20955816;28;20246;-77
2023/08/22 17:22:34;;;;;;;3.65;0.60;;;;;;;;;;20988287;28;20594;-71
2023/08/22 17:32:36;;;;;;;0.73;0.50;;;;;;;;;;20996731;28;20209;-71
2023/08/22 17:42:38;;;;;;;0.75;0.40;;;;;;;;;;20958467;28;20255;-71
2023/08/22 17:52:40;;;;;;;0.40;0.40;;;;;;;;;;21019188;28;20618;-72
2023/08/22 18:02:42;;;;;;;0.70;0.60;;;;;;;;;;20951747;28;20272;-75
2023/08/22 18:12:44;;;;;;;2.05;0.50;;;;;;;;;;20958855;28;20225;-74
2023/08/22 18:22:46;;;;;;;0.70;0.50;;;;;;;;;;20979179;28;20300;-75
2023/08/22 18:32:48;;;;;;;1.10;0.60;;;;;;;;;;20965991;28;20205;-76
2023/08/22 18:42:50;;;;;;;1.77;0.85;;;;;;;;;;20990072;28;20213;-76
2023/08/22 18:52:52;;;;;;;4.38;0.88;;;;;;;;;;20991097;28;20270;-73
2023/08/22 19:02:54;;;;;;;1.10;0.70;;;;;;;;;;20914368;28;20242;-72
2023/08/22 19:12:56;;;;;;;1.45;0.73;;;;;;;;;;20969495;28;20197;-72
2023/08/22 19:22:57;;;;;;;1.80;0.90;;;;;;;;;;20993402;28;20217;-72
2023/08/22 19:32:59;;;;;;;2.85;1.10;;;;;;;;;;20999604;28;20194;-74
2023/08/22 19:43:01;;;;;;;2.08;0.80;;;;;;;;;;20991235;28;20221;-72
2023/08/22 19:53:21;;;;;;;4.38;1.67;;;;;;;;;;20983541;28;20201;-72
2023/08/22 20:03:29;;;;;;;1.08;0.70;;;;;;;;;;20974259;28;20221;-71
2023/08/22 20:13:31;;;;;;;4.50;1.00;;;;;;;;;;21011525;28;20589;-72
2023/08/22 20:23:33;;;;;;;2.28;0.75;;;;;;;;;;21012603;28;20278;-72
2023/08/22 20:33:34;;;;;;;1.98;0.70;;;;;;;;;;20978210;28;20236;-71
2023/08/22 20:43:39;;;;;;;2.83;1.10;;;;;;;;;;21005521;22;20302;-72
2023/08/22 20:53:41;;;;;;;1.27;0.80;;;;;;;;;;20643670;28;20631;-72
2023/08/22 21:03:43;;;;;;;1.38;0.80;;;;;;;;;;20716582;28;20224;-73
2023/08/22 21:13:45;;;;;;;2.80;1.13;;;;;;;;;;20721631;28;20199;-73
2023/08/22 21:23:46;;;;;;;1.55;0.90;;;;;;;;;;20695800;28;20285;-73
2023/08/22 21:33:48;;;;;;;1.73;1.00;;;;;;;;;;20650959;28;20267;-73
2023/08/22 21:43:50;;;;;;;2.72;1.00;;;;;;;;;;20634827;28;20227;-73
2023/08/22 21:53:51;;;;;;;2.03;0.95;;;;;;;;;;20652183;28;20290;-73
2023/08/22 22:03:53;;;;;;;2.13;1.10;;;;;;;;;;20665287;28;20266;-73
2023/08/22 22:13:55;;;;;;;0.90;0.65;;;;;;;;;;20666648;28;20227;-73
2023/08/22 22:23:56;;;;;;;2.65;0.90;;;;;;;;;;20647567;28;20648;-73
2023/08/22 22:33:59;;;;;;;1.58;0.88;;;;;;;;;;20646053;28;20558;-73
2023/08/22 22:44:01;;;;;;;4.53;0.95;;;;;;;;;;20663650;28;20238;-73
2023/08/22 22:54:03;;;;;;;3.17;0.85;;;;;;;;;;20642886;28;20254;-73
2023/08/22 23:04:05;;;;;;;3.10;0.90;;;;;;;;;;20642804;28;20691;-73
2023/08/22 23:14:06;;;;;;;1.63;1.00;;;;;;;;;;20660422;28;20226;-73
2023/08/22 23:24:08;;;;;;;2.92;1.10;;;;;;;;;;20642823;28;20306;-73
2023/08/22 23:34:10;;;;;;;1.65;0.82;;;;;;;;;;20645306;28;20215;-72
2023/08/22 23:44:11;;;;;;;2.35;1.00;;;;;;;;;;20657593;28;20235;-72
2023/08/22 23:54:13;;;;;;;2.42;1.00;;;;;;;;;;20644685;28;20219;-72
